Time;durP1;ratioP1;P1;durP2;ratioP2;P2;SDS_P1;SDS_P2;PMS_P1;PMS_P2;Temp;Humidity;BMP_temperature;BMP_pressure;BME280_temperature;BME280_humidity;BME280_pressure;Samples;Min_cycle;Max_cycle;Signal;HPM_P1;HPM_P2
2023/08/10 00:01:24;;;;;;;1.10;0.70;;;17.00;99.90;;;;;;5025488;28;20048;-74
2023/08/10 00:03:51;;;;;;;0.85;0.63;;;17.00;99.90;;;;;;5023242;28;20052;-74
2023/08/10 00:06:18;;;;;;;1.42;0.68;;;17.00;1.00;;;;;;5031675;28;20156;-75
2023/08/10 00:08:45;;;;;;;0.75;0.60;;;17.10;1.00;;;;;;5025575;28;20115;-75
2023/08/10 00:11:11;;;;;;;0.73;0.60;;;17.10;1.00;;;;;;5024335;28;20053;-74
2023/08/10 00:13:38;;;;;;;0.45;0.38;;;17.00;1.00;;;;;;5037269;28;20049;-74
2023/08/10 00:16:05;;;;;;;0.52;0.47;;;17.00;1.00;;;;;;5044448;28;20045;-75
2023/08/10 00:18:32;;;;;;;1.10;0.65;;;17.00;1.00;;;;;;5025746;28;20057;-74
2023/08/10 00:20:59;;;;;;;0.98;0.50;;;16.90;1.00;;;;;;5040366;28;20091;-74
2023/08/10 00:23:26;;;;;;;0.32;0.32;;;16.90;99.90;;;;;;5046174;28;20122;-74
2023/08/10 00:25:53;;;;;;;0.77;0.60;;;16.90;99.90;;;;;;5043422;28;20110;-74
2023/08/10 00:28:19;;;;;;;0.52;0.43;;;17.00;99.90;;;;;;5044700;28;20064;-74
2023/08/10 00:30:46;;;;;;;0.77;0.50;;;16.90;99.90;;;;;;5045933;28;20053;-74
2023/08/10 00:33:13;;;;;;;0.68;0.52;;;16.90;99.90;;;;;;5044732;28;20601;-75
2023/08/10 00:35:59;;;;;;;0.55;0.40;;;16.90;99.90;;;;;;5044184;28;20152;-74
2023/08/10 00:38:26;;;;;;;0.60;0.50;;;16.90;99.90;;;;;;5029117;28;20106;-74
2023/08/10 00:40:52;;;;;;;0.60;0.60;;;16.80;99.90;;;;;;5025380;28;20087;-75
2023/08/10 00:43:21;;;;;;;0.90;0.70;;;16.80;99.90;;;;;;5042590;28;20053;-74
2023/08/10 00:45:47;;;;;;;1.05;0.70;;;16.80;99.90;;;;;;5043838;28;20179;-74
2023/08/10 00:48:14;;;;;;;1.25;0.80;;;16.80;99.90;;;;;;5011566;28;20057;-75
2023/08/10 00:50:41;;;;;;;1.00;0.70;;;16.70;99.90;;;;;;5043826;28;20049;-75
2023/08/10 00:53:08;;;;;;;0.68;0.60;;;16.70;1.00;;;;;;5044428;28;20569;-75
2023/08/10 00:55:34;;;;;;;0.95;0.60;;;16.70;99.90;;;;;;5042719;28;20067;-74
2023/08/10 00:58:02;;;;;;;0.57;0.57;;;16.70;99.90;;;;;;5027642;28;20211;-74
2023/08/10 01:00:29;;;;;;;0.85;0.60;;;16.70;1.00;;;;;;5023981;28;20048;-74
2023/08/10 01:02:55;;;;;;;0.80;0.75;;;16.60;1.00;;;;;;5021818;28;20182;-74
2023/08/10 01:05:22;;;;;;;0.88;0.80;;;16.60;1.00;;;;;;5004825;28;20132;-74
2023/08/10 01:08:02;;;;;;;0.65;0.63;;;16.50;1.00;;;;;;5042790;28;20140;-75
2023/08/10 01:10:35;;;;;;;0.80;0.60;;;16.50;1.00;;;;;;5024586;28;20049;-74
2023/08/10 01:13:22;;;;;;;1.08;0.70;;;16.50;1.00;;;;;;5038733;28;20044;-75
2023/08/10 01:15:57;;;;;;;0.57;0.55;;;16.50;76.70;;;;;;5043431;28;20053;-74
2023/08/10 01:18:26;;;;;;;0.40;0.40;;;16.50;1.30;;;;;;5028141;28;20056;-75
2023/08/10 01:20:54;;;;;;;0.77;0.52;;;16.40;89.50;;;;;;5013496;28;20072;-74
2023/08/10 01:23:29;;;;;;;1.10;0.80;;;16.40;99.90;;;;;;5025746;28;20060;-74
2023/08/10 01:25:56;;;;;;;1.63;0.90;;;16.30;99.90;;;;;;5036631;28;20048;-73
2023/08/10 01:28:23;;;;;;;0.77;0.52;;;16.30;99.90;;;;;;5011637;28;20077;-74
2023/08/10 01:30:50;;;;;;;0.60;0.60;;;16.30;99.90;;;;;;5027016;28;20046;-73
2023/08/10 01:33:18;;;;;;;0.98;0.70;;;16.30;99.90;;;;;;5019530;28;20103;-74
2023/08/10 01:35:45;;;;;;;0.88;0.68;;;16.30;99.90;;;;;;5025730;28;20060;-74
2023/08/10 01:38:11;;;;;;;0.95;0.70;;;16.20;99.90;;;;;;5047355;28;20068;-74
2023/08/10 01:40:39;;;;;;;0.80;0.65;;;16.20;99.90;;;;;;5032377;28;20106;-74
2023/08/10 01:43:05;;;;;;;1.00;0.60;;;16.20;99.90;;;;;;5026684;28;20106;-74
2023/08/10 01:45:32;;;;;;;0.50;0.40;;;16.20;1.00;;;;;;5048697;28;20507;-74
2023/08/10 01:48:04;;;;;;;0.77;0.60;;;16.20;1.00;;;;;;5049194;28;20068;-74
2023/08/10 01:50:33;;;;;;;0.60;0.40;;;16.10;1.00;;;;;;5031255;28;20052;-74
2023/08/10 01:53:03;;;;;;;0.93;0.60;;;16.10;1.00;;;;;;5015791;28;20550;-74
2023/08/10 01:55:30;;;;;;;0.80;0.60;;;16.00;1.00;;;;;;5030058;28;20045;-74
2023/08/10 01:57:57;;;;;;;0.52;0.50;;;16.00;1.00;;;;;;5048014;28;20053;-74
2023/08/10 02:00:24;;;;;;;0.52;0.45;;;16.00;1.00;;;;;;5047962;28;20081;-74
2023/08/10 02:02:51;;;;;;;0.80;0.60;;;16.00;28.70;;;;;;5047697;28;20045;-74
2023/08/10 02:05:17;;;;;;;0.73;0.57;;;16.10;36.80;;;;;;5047394;28;20135;-74
2023/08/10 02:07:48;;;;;;;0.90;0.47;;;16.00;1.00;;;;;;5041877;28;20434;-74
2023/08/10 02:10:15;;;;;;;0.52;0.50;;;15.90;1.00;;;;;;5047604;28;20049;-74
2023/08/10 02:12:42;;;;;;;0.70;0.50;;;15.90;53.10;;;;;;5023306;28;20095;-74
2023/08/10 02:15:12;;;;;;;0.45;0.45;;;15.90;59.20;;;;;;5031038;28;20045;-74
2023/08/10 02:17:40;;;;;;;1.05;0.80;;;15.80;81.10;;;;;;5031539;28;20052;-74
2023/08/10 02:20:12;;;;;;;0.60;0.50;;;15.80;99.90;;;;;;5030351;28;20693;-74
2023/08/10 02:22:45;;;;;;;1.02;0.77;;;15.80;99.90;;;;;;5029052;28;20057;-73
2023/08/10 02:25:12;;;;;;;0.57;0.57;;;15.80;99.90;;;;;;5045780;28;20136;-74
2023/08/10 02:27:42;;;;;;;0.75;0.50;;;15.70;99.90;;;;;;5031532;28;20076;-74
2023/08/10 02:30:09;;;;;;;0.77;0.68;;;15.70;99.90;;;;;;5046360;28;20514;-74
2023/08/10 02:32:36;;;;;;;0.50;0.32;;;15.70;99.90;;;;;;5014714;28;20053;-74
2023/08/10 02:35:06;;;;;;;0.50;0.50;;;15.70;99.90;;;;;;5046399;28;20535;-74
2023/08/10 02:37:33;;;;;;;1.02;0.80;;;15.70;99.90;;;;;;5048463;28;20095;-74
2023/08/10 02:40:01;;;;;;;0.85;0.60;;;15.70;99.90;;;;;;5047754;28;20132;-74
2023/08/10 02:42:28;;;;;;;0.60;0.60;;;15.70;99.90;;;;;;5043228;28;20033;-74
2023/08/10 02:44:54;;;;;;;0.55;0.50;;;15.70;99.90;;;;;;5027074;28;20061;-74
2023/08/10 02:47:21;;;;;;;0.68;0.50;;;15.60;99.90;;;;;;5026061;28;20041;-74
2023/08/10 02:49:48;;;;;;;0.95;0.70;;;15.60;99.90;;;;;;5047653;28;20053;-74
2023/08/10 02:52:15;;;;;;;0.45;0.38;;;15.60;99.90;;;;;;5047770;28;20087;-74
2023/08/10 02:54:41;;;;;;;1.17;0.75;;;15.60;99.90;;;;;;5045818;28;20053;-74
2023/08/10 02:57:08;;;;;;;0.82;0.60;;;15.50;99.90;;;;;;5046391;28;20088;-74
2023/08/10 02:59:35;;;;;;;0.70;0.50;;;15.50;99.90;;;;;;5045958;28;20049;-74
2023/08/10 03:02:02;;;;;;;0.82;0.60;;;15.50;99.90;;;;;;5047559;28;20048;-74
2023/08/10 03:04:30;;;;;;;0.70;0.63;;;15.50;99.90;;;;;;5047044;28;20495;-74
2023/08/10 03:06:57;;;;;;;1.10;0.70;;;15.50;99.90;;;;;;5046167;28;20540;-74
2023/08/10 03:09:24;;;;;;;0.75;0.57;;;15.50;99.90;;;;;;5045709;28;20077;-74
2023/08/10 03:11:51;;;;;;;1.13;0.80;;;15.50;99.90;;;;;;5032556;28;20071;-74
2023/08/10 03:14:18;;;;;;;0.77;0.50;;;15.40;99.90;;;;;;5033607;28;20053;-74
2023/08/10 03:16:45;;;;;;;0.82;0.75;;;15.40;99.90;;;;;;5039481;28;20049;-74
2023/08/10 03:19:11;;;;;;;1.00;0.70;;;15.40;99.90;;;;;;5066217;28;20388;-74
2023/08/10 03:21:38;;;;;;;0.50;0.47;;;15.30;99.90;;;;;;5064697;28;20792;-74
2023/08/10 03:24:05;;;;;;;0.43;0.40;;;15.30;99.90;;;;;;5053262;28;20045;-74
2023/08/10 03:26:32;;;;;;;0.80;0.63;;;15.30;99.90;;;;;;5046699;28;20450;-75
2023/08/10 03:28:59;;;;;;;0.52;0.52;;;15.30;99.90;;;;;;5052630;28;20742;-74
2023/08/10 03:31:26;;;;;;;3.45;0.55;;;15.30;99.90;;;;;;5082292;28;20079;-74
2023/08/10 03:33:52;;;;;;;0.98;0.40;;;15.30;99.90;;;;;;5062133;28;20045;-74
2023/08/10 03:36:20;;;;;;;0.77;0.52;;;15.20;99.90;;;;;;5045863;28;20122;-74
2023/08/10 03:38:46;;;;;;;0.70;0.50;;;15.20;1.00;;;;;;5047997;28;20056;-74
2023/08/10 03:41:13;;;;;;;0.45;0.45;;;15.20;99.90;;;;;;5046707;28;20106;-74
2023/08/10 03:43:40;;;;;;;0.40;0.38;;;15.20;99.90;;;;;;5043683;28;20045;-74
2023/08/10 03:46:07;;;;;;;0.60;0.52;;;15.20;1.00;;;;;;5046142;28;20103;-74
2023/08/10 03:48:34;;;;;;;1.20;0.80;;;15.10;1.00;;;;;;5062531;28;20051;-74
2023/08/10 03:51:01;;;;;;;1.35;0.63;;;15.10;1.00;;;;;;5053767;28;20044;-74
2023/08/10 03:53:28;;;;;;;0.65;0.43;;;15.10;99.90;;;;;;5040215;28;20128;-73
2023/08/10 03:55:54;;;;;;;0.52;0.40;;;15.10;1.00;;;;;;5044563;28;20178;-74
2023/08/10 03:58:21;;;;;;;0.40;0.40;;;15.10;1.00;;;;;;5054282;28;20056;-74
2023/08/10 04:00:48;;;;;;;0.77;0.57;;;15.10;1.00;;;;;;5064654;28;20087;-73
2023/08/10 04:03:15;;;;;;;0.38;0.38;;;15.10;1.00;;;;;;5058844;28;20048;-73
2023/08/10 04:05:42;;;;;;;0.63;0.55;;;15.10;1.00;;;;;;5058544;28;20097;-74
2023/08/10 04:08:10;;;;;;;0.65;0.60;;;15.10;1.00;;;;;;5064605;28;20041;-74
2023/08/10 04:10:37;;;;;;;0.70;0.60;;;15.10;1.00;;;;;;5046711;28;20102;-73
2023/08/10 04:13:04;;;;;;;0.57;0.40;;;15.00;1.00;;;;;;5017416;28;20048;-73
2023/08/10 04:15:32;;;;;;;0.77;0.60;;;15.00;1.00;;;;;;5045649;28;20053;-75
2023/08/10 04:17:58;;;;;;;0.98;0.60;;;14.90;1.00;;;;;;5047202;28;20095;-74
2023/08/10 04:20:25;;;;;;;0.43;0.43;;;14.80;1.00;;;;;;5044551;28;20155;-74
2023/08/10 04:22:52;;;;;;;1.02;0.63;;;14.80;1.00;;;;;;5049239;28;20472;-74
2023/08/10 04:25:19;;;;;;;1.23;0.80;;;14.80;1.00;;;;;;5062562;28;20052;-73
2023/08/10 04:27:46;;;;;;;1.02;0.68;;;14.80;8.40;;;;;;5047758;28;20118;-74
2023/08/10 04:30:13;;;;;;;0.98;0.75;;;14.80;1.00;;;;;;5056959;28;20052;-74
2023/08/10 04:32:40;;;;;;;0.55;0.50;;;14.80;57.80;;;;;;5045592;28;20049;-74
2023/08/10 04:35:09;;;;;;;0.60;0.60;;;14.90;84.20;;;;;;5045232;28;20040;-74
2023/08/10 04:37:36;;;;;;;0.82;0.55;;;14.90;37.00;;;;;;5026819;28;20045;-73
2023/08/10 04:40:09;;;;;;;0.50;0.50;;;14.90;6.40;;;;;;5052484;28;20051;-74
2023/08/10 04:42:40;;;;;;;;;;;14.80;12.00;;;;;;5042215;28;20047;-74
2023/08/10 04:45:09;;;;;;;0.50;0.43;;;14.80;20.50;;;;;;5065202;28;19944;-74
2023/08/10 04:47:37;;;;;;;0.50;0.50;;;14.80;65.90;;;;;;5063572;28;20060;-74
2023/08/10 04:50:04;;;;;;;0.60;0.60;;;14.80;70.50;;;;;;5055359;28;20041;-74
2023/08/10 04:52:31;;;;;;;0.70;0.65;;;14.70;45.10;;;;;;5044532;28;20481;-74
2023/08/10 04:54:58;;;;;;;0.57;0.50;;;14.80;73.20;;;;;;5025248;28;20160;-74
2023/08/10 04:57:26;;;;;;;0.70;0.68;;;14.70;71.30;;;;;;5039782;28;20049;-73
2023/08/10 04:59:52;;;;;;;0.47;0.30;;;14.70;53.30;;;;;;5043869;28;20072;-74
2023/08/10 05:02:19;;;;;;;0.50;0.50;;;14.70;83.50;;;;;;5045894;28;20053;-75
2023/08/10 05:04:46;;;;;;;1.70;0.60;;;14.70;82.40;;;;;;5045096;28;20091;-76
2023/08/10 05:07:13;;;;;;;0.70;0.50;;;14.80;94.40;;;;;;5049025;28;20056;-76
2023/08/10 05:09:40;;;;;;;0.80;0.60;;;14.80;97.30;;;;;;5047915;28;20037;-76
2023/08/10 05:12:22;;;;;;;0.73;0.60;;;14.80;98.00;;;;;;5047098;28;20064;-76
2023/08/10 05:14:48;;;;;;;1.20;0.90;;;14.90;82.90;;;;;;5055966;28;20037;-76
2023/08/10 05:17:15;;;;;;;1.10;0.70;;;14.80;91.60;;;;;;5055688;28;20056;-76
2023/08/10 05:19:42;;;;;;;0.85;0.70;;;14.90;93.60;;;;;;5053607;28;20110;-77
2023/08/10 05:22:09;;;;;;;1.02;0.60;;;15.00;91.10;;;;;;5053778;28;20041;-76
2023/08/10 05:24:36;;;;;;;1.27;0.82;;;15.00;36.30;;;;;;5043288;28;20071;-75
2023/08/10 05:27:04;;;;;;;1.73;1.20;;;15.00;18.90;;;;;;5057562;28;20138;-76
2023/08/10 05:29:31;;;;;;;1.20;0.93;;;15.00;31.60;;;;;;5052213;28;20053;-77
2023/08/10 05:31:58;;;;;;;0.82;0.65;;;15.10;21.20;;;;;;5042513;28;20037;-77
2023/08/10 05:34:25;;;;;;;1.17;0.77;;;15.10;20.80;;;;;;5044169;28;20053;-77
2023/08/10 05:36:52;;;;;;;1.20;0.90;;;15.10;20.50;;;;;;5038037;28;20041;-77
2023/08/10 05:39:18;;;;;;;0.77;0.50;;;15.20;41.70;;;;;;5035835;28;20376;-76
2023/08/10 05:41:45;;;;;;;1.25;0.60;;;15.20;14.70;;;;;;5043660;28;20493;-76
2023/08/10 05:44:12;;;;;;;0.60;0.60;;;15.30;16.10;;;;;;5045877;28;20110;-77
2023/08/10 05:46:39;;;;;;;0.70;0.60;;;15.30;30.40;;;;;;5044285;28;20045;-76
2023/08/10 05:49:06;;;;;;;0.93;0.60;;;15.40;45.70;;;;;;5047875;28;20161;-77
2023/08/10 05:51:32;;;;;;;0.73;0.60;;;15.50;21.80;;;;;;5049445;28;20146;-76
2023/08/10 05:53:59;;;;;;;0.60;0.50;;;15.60;1.00;;;;;;5043434;28;20052;-73
2023/08/10 05:56:26;;;;;;;1.00;0.68;;;15.70;1.00;;;;;;5044471;28;20053;-76
2023/08/10 05:58:53;;;;;;;0.80;0.60;;;15.80;1.00;;;;;;5046880;28;20132;-76
2023/08/10 06:01:21;;;;;;;0.80;0.65;;;15.80;1.00;;;;;;5027387;28;20458;-76
2023/08/10 06:03:48;;;;;;;0.50;0.50;;;15.90;1.00;;;;;;5041477;28;20049;-76
2023/08/10 06:06:16;;;;;;;0.82;0.63;;;15.90;1.00;;;;;;5038418;28;20053;-75
2023/08/10 06:08:44;;;;;;;0.82;0.50;;;16.00;1.00;;;;;;5045354;28;20060;-76
2023/08/10 06:11:11;;;;;;;1.40;0.60;;;16.00;1.00;;;;;;5041349;28;20122;-76
2023/08/10 06:13:41;;;;;;;1.05;0.70;;;16.10;99.90;;;;;;5043200;28;20044;-75
2023/08/10 06:16:08;;;;;;;1.05;0.82;;;16.20;99.90;;;;;;5040960;28;20049;-75
2023/08/10 06:18:35;;;;;;;0.40;0.40;;;16.40;99.90;;;;;;5045012;28;20457;-76
2023/08/10 06:21:03;;;;;;;0.43;0.43;;;16.40;99.90;;;;;;5039477;28;20146;-76
2023/08/10 06:23:30;;;;;;;0.50;0.40;;;16.50;99.90;;;;;;5039115;28;20041;-76
2023/08/10 06:25:57;;;;;;;0.80;0.60;;;16.60;99.90;;;;;;5032620;28;20049;-75
2023/08/10 06:28:24;;;;;;;0.63;0.43;;;16.70;99.90;;;;;;5032787;28;20144;-75
2023/08/10 06:30:51;;;;;;;0.60;0.52;;;16.80;99.90;;;;;;5043354;28;20095;-75
2023/08/10 06:33:19;;;;;;;0.50;0.47;;;16.90;99.90;;;;;;5046660;28;20072;-75
2023/08/10 06:35:46;;;;;;;0.50;0.43;;;17.00;99.90;;;;;;5043955;28;20057;-76
2023/08/10 06:38:13;;;;;;;0.75;0.60;;;17.10;85.30;;;;;;5045010;28;20045;-75
2023/08/10 06:40:40;;;;;;;0.40;0.40;;;17.20;1.00;;;;;;5037522;28;20481;-75
2023/08/10 06:43:07;;;;;;;0.60;0.60;;;17.20;99.90;;;;;;5046887;28;20060;-75
2023/08/10 06:45:34;;;;;;;0.80;0.50;;;17.40;99.90;;;;;;5047541;28;20051;-75
2023/08/10 06:48:01;;;;;;;0.70;0.50;;;17.40;99.90;;;;;;5047973;28;20076;-75
2023/08/10 06:50:28;;;;;;;1.17;0.82;;;17.60;99.90;;;;;;5046896;28;20095;-74
2023/08/10 06:52:55;;;;;;;0.63;0.50;;;17.60;35.10;;;;;;5035864;28;20044;-74
2023/08/10 06:55:22;;;;;;;0.65;0.55;;;17.70;1.00;;;;;;5026171;28;20059;-75
2023/08/10 06:57:48;;;;;;;0.60;0.60;;;17.80;99.90;;;;;;5027570;28;20065;-75
2023/08/10 07:00:20;;;;;;;0.68;0.55;;;17.90;99.90;;;;;;5043436;28;20056;-75
2023/08/10 07:02:50;;;;;;;0.40;0.40;;;18.10;49.90;;;;;;5011951;28;20056;-75
2023/08/10 07:05:17;;;;;;;0.32;0.30;;;18.10;1.00;;;;;;5042296;28;20056;-75
2023/08/10 07:07:44;;;;;;;1.02;0.50;;;18.20;99.90;;;;;;5043902;28;20135;-74
2023/08/10 07:10:11;;;;;;;0.57;0.40;;;18.30;99.90;;;;;;5041452;28;20049;-74
2023/08/10 07:12:38;;;;;;;0.52;0.40;;;18.40;99.90;;;;;;5042767;28;20067;-75
2023/08/10 07:15:07;;;;;;;0.75;0.60;;;18.50;99.90;;;;;;5041978;28;20060;-75
2023/08/10 07:17:35;;;;;;;0.55;0.47;;;18.50;99.90;;;;;;5024581;28;20089;-74
2023/08/10 07:20:06;;;;;;;0.77;0.50;;;18.60;99.90;;;;;;5035708;28;20052;-74
2023/08/10 07:22:33;;;;;;;0.30;0.30;;;18.70;99.90;;;;;;5042454;28;20061;-74
2023/08/10 07:25:05;;;;;;;0.60;0.57;;;18.80;96.80;;;;;;5040805;28;20053;-74
2023/08/10 07:27:33;;;;;;;0.43;0.40;;;18.80;98.70;;;;;;5042294;28;20045;-74
2023/08/10 07:30:00;;;;;;;0.63;0.50;;;18.90;94.90;;;;;;5041846;28;20053;-74
2023/08/10 07:32:28;;;;;;;0.65;0.40;;;19.00;89.30;;;;;;5043305;28;20048;-74
2023/08/10 07:34:54;;;;;;;0.43;0.35;;;19.00;88.70;;;;;;5041309;28;20087;-74
2023/08/10 07:37:21;;;;;;;0.63;0.50;;;19.10;87.40;;;;;;5043902;28;20114;-74
2023/08/10 07:39:48;;;;;;;0.80;0.50;;;19.20;72.00;;;;;;5012680;28;20119;-73
2023/08/10 07:42:15;;;;;;;0.77;0.40;;;19.20;71.40;;;;;;5007656;28;20148;-74
2023/08/10 07:44:42;;;;;;;0.47;0.38;;;19.30;68.60;;;;;;5022126;28;20064;-74
2023/08/10 07:47:10;;;;;;;0.70;0.50;;;19.30;67.80;;;;;;5025209;28;20132;-74
2023/08/10 07:49:37;;;;;;;0.40;0.30;;;19.40;72.40;;;;;;5037431;28;20060;-74
2023/08/10 07:52:04;;;;;;;0.55;0.45;;;19.40;73.30;;;;;;5039887;28;20412;-74
2023/08/10 07:54:31;;;;;;;0.40;0.40;;;19.50;77.20;;;;;;5039710;28;20052;-74
2023/08/10 07:56:58;;;;;;;0.95;0.50;;;19.60;78.90;;;;;;5004242;28;20053;-75
2023/08/10 07:59:25;;;;;;;0.63;0.50;;;19.60;79.10;;;;;;4993081;28;20452;-74
2023/08/10 08:01:51;;;;;;;0.70;0.50;;;19.70;79.30;;;;;;5037365;28;20102;-74
2023/08/10 08:04:18;;;;;;;0.30;0.30;;;19.70;83.20;;;;;;5042543;28;20064;-74
2023/08/10 08:06:45;;;;;;;0.95;0.50;;;19.80;82.30;;;;;;5041011;28;20621;-74
2023/08/10 08:09:13;;;;;;;0.28;0.28;;;19.80;83.00;;;;;;5021354;28;20179;-74
2023/08/10 08:11:39;;;;;;;0.47;0.45;;;19.90;82.50;;;;;;5032493;28;20603;-75
2023/08/10 08:14:06;;;;;;;0.45;0.45;;;20.00;80.10;;;;;;5015852;28;20081;-74
2023/08/10 08:16:33;;;;;;;0.55;0.38;;;20.00;80.10;;;;;;5028798;28;20102;-75
2023/08/10 08:19:00;;;;;;;0.73;0.50;;;20.10;86.00;;;;;;5020378;28;20545;-74
2023/08/10 08:21:28;;;;;;;0.47;0.40;;;20.20;88.30;;;;;;5037389;28;20072;-75
2023/08/10 08:23:55;;;;;;;0.60;0.50;;;20.30;88.20;;;;;;5017697;28;20086;-75
2023/08/10 08:26:28;;;;;;;0.60;0.47;;;20.30;85.80;;;;;;5031099;28;20163;-74
2023/08/10 08:28:56;;;;;;;0.50;0.50;;;20.40;81.40;;;;;;5030696;28;20053;-75
2023/08/10 08:31:23;;;;;;;0.40;0.40;;;20.50;82.40;;;;;;5035873;28;20111;-75
2023/08/10 08:33:50;;;;;;;0.40;0.40;;;20.50;80.30;;;;;;5017938;28;20077;-74
2023/08/10 08:36:18;;;;;;;0.70;0.60;;;20.60;79.00;;;;;;5020931;28;20067;-74
2023/08/10 08:38:44;;;;;;;1.38;0.93;;;20.70;77.20;;;;;;5036230;28;20045;-75
2023/08/10 08:41:12;;;;;;;0.52;0.40;;;20.80;84.40;;;;;;5027761;28;20492;-74
2023/08/10 08:43:39;;;;;;;1.08;0.82;;;20.90;79.10;;;;;;5015966;28;20077;-74
2023/08/10 08:46:07;;;;;;;1.10;0.82;;;21.00;76.40;;;;;;5035724;28;20056;-74
2023/08/10 08:48:34;;;;;;;1.02;0.68;;;21.00;77.10;;;;;;5034751;28;20105;-74
2023/08/10 08:51:01;;;;;;;1.63;0.60;;;21.10;73.20;;;;;;5015425;28;20045;-75
2023/08/10 08:53:28;;;;;;;0.60;0.50;;;21.20;75.90;;;;;;5017692;28;20053;-74
2023/08/10 08:55:54;;;;;;;1.17;0.70;;;21.30;77.40;;;;;;5030134;28;20270;-74
2023/08/10 08:58:21;;;;;;;1.10;0.90;;;21.50;78.40;;;;;;5017332;28;20406;-74
2023/08/10 09:00:52;;;;;;;0.93;0.57;;;21.50;72.40;;;;;;5033039;28;20098;-74
2023/08/10 09:03:23;;;;;;;0.73;0.52;;;21.60;67.00;;;;;;5000025;28;20041;-75
2023/08/10 09:05:50;;;;;;;0.57;0.45;;;21.60;67.80;;;;;;5001424;28;20080;-74
2023/08/10 09:08:17;;;;;;;0.85;0.50;;;21.70;69.50;;;;;;4994714;28;20052;-75
2023/08/10 09:10:45;;;;;;;0.77;0.52;;;21.80;64.50;;;;;;5029762;28;20674;-74
2023/08/10 09:13:22;;;;;;;0.65;0.60;;;21.90;67.00;;;;;;5038586;28;20045;-74
2023/08/10 09:16:12;;;;;;;0.75;0.52;;;22.00;70.80;;;;;;5015936;28;20110;-75
2023/08/10 09:18:42;;;;;;;0.60;0.60;;;22.00;69.00;;;;;;5036785;28;20049;-74
2023/08/10 09:21:15;;;;;;;0.60;0.60;;;22.10;67.20;;;;;;5022513;28;20045;-74
2023/08/10 09:23:44;;;;;;;1.08;0.77;;;22.10;71.50;;;;;;5039260;28;20434;-74
2023/08/10 09:26:11;;;;;;;0.68;0.68;;;22.20;70.80;;;;;;5021234;28;20222;-75
2023/08/10 09:28:38;;;;;;;0.90;0.70;;;22.40;68.50;;;;;;5039464;28;20071;-75
2023/08/10 09:31:07;;;;;;;0.90;0.70;;;22.50;72.30;;;;;;5042028;28;20052;-75
2023/08/10 09:33:35;;;;;;;1.10;0.60;;;22.50;70.60;;;;;;5043390;28;20094;-75
2023/08/10 09:36:03;;;;;;;0.55;0.55;;;22.60;67.50;;;;;;5039383;28;20078;-75
2023/08/10 09:38:30;;;;;;;0.82;0.73;;;22.70;70.60;;;;;;5041552;28;20099;-74
2023/08/10 09:41:13;;;;;;;1.13;0.68;;;22.70;68.20;;;;;;5039243;28;20092;-74
2023/08/10 09:43:41;;;;;;;1.00;0.60;;;22.80;68.90;;;;;;5035625;28;20064;-75
2023/08/10 09:46:09;;;;;;;0.90;0.68;;;22.80;69.00;;;;;;5023447;28;20082;-75
2023/08/10 09:48:47;;;;;;;2.13;0.70;;;23.00;72.00;;;;;;5027550;28;20103;-75
2023/08/10 09:51:14;;;;;;;1.58;0.82;;;23.00;65.60;;;;;;5023631;28;20480;-75
2023/08/10 09:53:41;;;;;;;1.02;0.70;;;23.00;65.70;;;;;;5038984;28;20401;-77
2023/08/10 09:56:08;;;;;;;1.13;1.02;;;23.10;67.10;;;;;;5038885;28;20073;-75
2023/08/10 09:58:44;;;;;;;1.20;0.80;;;23.20;69.90;;;;;;5027739;28;20052;-74
2023/08/10 10:01:11;;;;;;;1.05;0.80;;;23.30;70.00;;;;;;5047493;28;20068;-75
2023/08/10 10:03:43;;;;;;;0.77;0.75;;;23.40;68.40;;;;;;5046552;28;20118;-75
2023/08/10 10:06:10;;;;;;;1.10;0.80;;;23.50;71.40;;;;;;5027543;28;20144;-75
2023/08/10 10:08:37;;;;;;;1.20;0.93;;;23.60;68.00;;;;;;5027390;28;20590;-74
2023/08/10 10:11:07;;;;;;;0.60;0.60;;;23.70;65.50;;;;;;5025376;28;20068;-76
2023/08/10 10:13:34;;;;;;;0.85;0.80;;;23.60;68.20;;;;;;5038408;28;20115;-77
2023/08/10 10:16:00;;;;;;;0.90;0.75;;;23.60;66.30;;;;;;5014547;28;20053;-77
2023/08/10 10:18:27;;;;;;;0.95;0.70;;;23.70;70.30;;;;;;5042262;28;20045;-77
2023/08/10 10:20:54;;;;;;;0.43;0.43;;;23.90;67.20;;;;;;5021742;28;20110;-77
2023/08/10 10:23:21;;;;;;;0.77;0.60;;;24.00;66.70;;;;;;5038963;28;20144;-74
2023/08/10 10:25:58;;;;;;;0.77;0.68;;;24.00;66.00;;;;;;5009045;28;20107;-77
2023/08/10 10:28:26;;;;;;;0.63;0.50;;;24.00;62.80;;;;;;5024693;28;20408;-76
2023/08/10 10:31:14;;;;;;;1.00;0.77;;;23.80;63.70;;;;;;4999550;28;20045;-76
2023/08/10 10:33:54;;;;;;;1.50;0.82;;;23.90;61.40;;;;;;5043162;28;20127;-76
2023/08/10 10:36:20;;;;;;;0.85;0.70;;;24.10;63.30;;;;;;5032477;28;20110;-76
2023/08/10 10:38:55;;;;;;;0.52;0.52;;;24.30;61.90;;;;;;5007166;28;20044;-76
2023/08/10 10:41:32;;;;;;;0.65;0.63;;;24.60;60.00;;;;;;5018925;28;20121;-76
2023/08/10 10:44:00;;;;;;;0.68;0.60;;;25.00;62.20;;;;;;5039953;28;20052;-76
2023/08/10 10:46:32;;;;;;;0.90;0.65;;;25.50;63.50;;;;;;5039747;28;20739;-76
2023/08/10 10:49:00;;;;;;;0.80;0.65;;;26.00;59.90;;;;;;5038850;28;20045;-76
2023/08/10 10:51:28;;;;;;;0.63;0.63;;;26.40;56.40;;;;;;5016965;28;20057;-76
2023/08/10 10:53:55;;;;;;;0.82;0.60;;;26.70;57.50;;;;;;5040293;28;20140;-75
2023/08/10 10:56:24;;;;;;;0.68;0.68;;;26.70;50.60;;;;;;5036537;28;20054;-75
2023/08/10 10:58:51;;;;;;;0.73;0.65;;;27.00;48.80;;;;;;5019613;28;20096;-75
2023/08/10 11:01:21;;;;;;;1.02;0.80;;;27.10;47.30;;;;;;5027499;28;20162;-76
2023/08/10 11:03:52;;;;;;;1.15;0.90;;;27.10;42.40;;;;;;5029553;28;20040;-75
2023/08/10 11:06:20;;;;;;;1.00;0.90;;;27.20;44.50;;;;;;5021895;28;20056;-75
2023/08/10 11:08:51;;;;;;;1.23;0.88;;;27.30;41.10;;;;;;5022501;28;20056;-75
2023/08/10 11:11:18;;;;;;;1.02;0.70;;;27.20;38.60;;;;;;5026875;28;20056;-75
2023/08/10 11:13:45;;;;;;;1.33;0.88;;;27.20;38.20;;;;;;5029520;28;20049;-76
2023/08/10 11:16:12;;;;;;;1.02;0.93;;;27.10;35.20;;;;;;5035148;28;20049;-74
2023/08/10 11:18:41;;;;;;;0.80;0.77;;;26.80;32.90;;;;;;5035713;28;20067;-75
2023/08/10 11:21:08;;;;;;;1.08;0.77;;;26.60;33.10;;;;;;5003774;28;20049;-75
2023/08/10 11:23:35;;;;;;;1.13;0.70;;;26.60;34.40;;;;;;5023933;28;20049;-75
2023/08/10 11:26:02;;;;;;;0.63;0.60;;;26.60;32.50;;;;;;5001600;28;20056;-75
2023/08/10 11:28:29;;;;;;;0.65;0.57;;;26.70;31.10;;;;;;5019187;28;20053;-75
2023/08/10 11:31:05;;;;;;;1.65;0.93;;;26.70;32.30;;;;;;5037595;28;20053;-75
2023/08/10 11:33:35;;;;;;;1.23;0.70;;;26.60;29.00;;;;;;5035208;28;20720;-76
2023/08/10 11:36:03;;;;;;;0.75;0.60;;;26.70;30.10;;;;;;5022281;28;20114;-77
2023/08/10 11:38:40;;;;;;;0.50;0.50;;;27.30;31.10;;;;;;5039389;28;20643;-76
2023/08/10 11:41:07;;;;;;;1.58;0.80;;;27.90;32.80;;;;;;5026068;28;20061;-78
2023/08/10 11:43:34;;;;;;;0.60;0.60;;;28.30;30.90;;;;;;5015063;28;20186;-74
2023/08/10 11:46:01;;;;;;;0.77;0.70;;;28.60;29.00;;;;;;5034925;28;20059;-74
2023/08/10 11:48:29;;;;;;;0.80;0.65;;;28.80;25.90;;;;;;5035405;28;20159;-74
2023/08/10 11:50:59;;;;;;;6.03;0.80;;;29.10;25.50;;;;;;5014519;28;20060;-74
2023/08/10 11:53:36;;;;;;;0.70;0.70;;;29.30;22.10;;;;;;5034700;28;20405;-75
2023/08/10 11:56:05;;;;;;;0.70;0.57;;;29.30;19.30;;;;;;5033478;28;20061;-74
2023/08/10 11:58:32;;;;;;;0.82;0.52;;;29.00;14.40;;;;;;5035304;28;20107;-75
2023/08/10 12:01:02;;;;;;;0.40;0.40;;;28.70;12.80;;;;;;5029693;28;20049;-75
2023/08/10 12:03:31;;;;;;;0.50;0.50;;;28.60;10.40;;;;;;5005609;28;20051;-75
2023/08/10 12:06:06;;;;;;;0.50;0.50;;;28.60;10.30;;;;;;5039705;28;20057;-75
2023/08/10 12:08:38;;;;;;;0.70;0.60;;;28.40;6.30;;;;;;5039401;28;20041;-74
2023/08/10 12:11:11;;;;;;;0.57;0.50;;;28.30;5.20;;;;;;5036343;28;20084;-74
2023/08/10 12:13:49;;;;;;;1.52;0.77;;;28.30;5.90;;;;;;5035115;28;20052;-74
2023/08/10 12:16:16;;;;;;;0.73;0.63;;;28.30;5.00;;;;;;5037911;28;20057;-75
2023/08/10 12:18:43;;;;;;;0.55;0.55;;;28.40;4.30;;;;;;5005577;28;20053;-74
2023/08/10 12:21:11;;;;;;;1.23;0.73;;;28.90;5.80;;;;;;5017140;28;20057;-75
2023/08/10 12:23:38;;;;;;;1.70;0.90;;;29.00;3.60;;;;;;5029144;28;20078;-75
2023/08/10 12:26:05;;;;;;;1.20;0.80;;;29.10;1.00;;;;;;5023890;28;20140;-75
2023/08/10 12:28:31;;;;;;;0.60;0.60;;;29.10;8.80;;;;;;5018507;28;20055;-75
2023/08/10 12:30:58;;;;;;;0.70;0.70;;;29.50;1.00;;;;;;5032185;28;20071;-75
2023/08/10 12:33:26;;;;;;;0.55;0.55;;;29.90;1.00;;;;;;5018503;28;20054;-75
2023/08/10 12:35:52;;;;;;;1.00;0.90;;;30.00;1.00;;;;;;5005520;28;20097;-75
2023/08/10 12:38:20;;;;;;;0.95;0.70;;;29.80;1.00;;;;;;5038198;28;20057;-76
2023/08/10 12:40:47;;;;;;;1.10;0.60;;;29.80;1.00;;;;;;5037098;28;20612;-75
2023/08/10 12:43:14;;;;;;;0.70;0.60;;;29.90;1.00;;;;;;5035790;28;20045;-75
2023/08/10 12:45:40;;;;;;;1.45;0.90;;;30.40;1.00;;;;;;5034185;28;20057;-76
2023/08/10 12:48:07;;;;;;;0.90;0.70;;;30.80;1.00;;;;;;5036402;28;20044;-74
2023/08/10 12:50:34;;;;;;;0.95;0.80;;;31.20;1.00;;;;;;5028170;28;20132;-74
2023/08/10 12:53:01;;;;;;;0.60;0.60;;;31.20;1.00;;;;;;5033652;28;20068;-74
2023/08/10 12:55:28;;;;;;;0.60;0.60;;;31.40;1.00;;;;;;5037584;28;20064;-75